LiveATC.Net - Listen to live air traffic control over the Internet! Contact LiveATC.net for advertising information


ICAO: SBMT  IATA:   Airport: Marte Airport
City: Sao Paulo
Country: Brazil   Continent: South America
SBMT METAR Weather: SBMT 050200Z 14011KT 9999 BKN030 OVC040 12/09 Q1023
SBMT Flight Activity (FlightAware)
SBMT Ground/Tower
Feed Status: DOWN
Last heard on: 2015-06-19 00:50:03 (16 days 1 hours 51 minutes ago)
SBMT Ground/Tower Audio Archives
FacilityFrequency
Marte Ground121.600
Marte Tower133.350


NOTICE

Unauthorized use prohibited. See LiveATC.net Terms of Service


Find LiveATC Audio Streams


Airport/ARTCC Code

Frequency
(e.g., 124.400, 128.75)
Site-wide search

Browse LiveATC Feeds
LiveATC Coverage Map
Top 50 LiveATC Feeds
Bad Weather Areas

LiveATC FAQ
Offer a LiveATC Feed
Contact LiveATC.net
Press Inquiries

LiveATC on iPhone
LiveATC on Android

LiveATC Mobile
(Mobile browser)

ATC Audio Archives
Interesting Recordings

LiveATC Forums


Home Page
About LiveATC.net
Make a Donation
LiveATC Bookstore

Terms of Use
Privacy Policy

ATC/Radar Sites
U.S. ARTCC Freqs
Canadian Air Freqs

AIRMETs/SIGMETs

FAA Airport Status
Nat'l Airspace Status
Arrival Demand Charts


Server Software By:
Icecast.org
Liquidsoap

Please make a donation to help us keep growing!